Time;durP1;ratioP1;P1;durP2;ratioP2;P2;SDS_P1;SDS_P2;PMS_P1;PMS_P2;Temp;Humidity;BMP_temperature;BMP_pressure;BME280_temperature;BME280_humidity;BME280_pressure;Samples;Min_cycle;Max_cycle;Signal;HPM_P1;HPM_P2
2022/03/17 00:01:12;;;;;;;;;;;21.70;32.00;;;;;;484239;246;1276;-40
2022/03/17 00:03:13;;;;;;;;;;;21.70;32.00;;;;;;484716;246;1182;-40
2022/03/17 00:05:15;;;;;;;;;;;21.70;32.00;;;;;;484699;246;1029;-40
2022/03/17 00:07:16;;;;;;;;;;;21.70;32.00;;;;;;484182;246;1126;-39
2022/03/17 00:09:17;;;;;;;;;;;21.70;32.00;;;;;;484669;246;1081;-40
2022/03/17 00:11:18;;;;;;;;;;;21.70;32.00;;;;;;484463;246;1029;-40
2022/03/17 00:13:21;;;;;;;;;;;21.70;32.00;;;;;;484705;246;1066;-40
2022/03/17 00:15:23;;;;;;;;;;;21.70;32.00;;;;;;484549;246;1043;-40
2022/03/17 00:17:25;;;;;;;;;;;21.60;32.00;;;;;;484208;246;1191;-40
2022/03/17 00:19:26;;;;;;;;;;;21.70;32.00;;;;;;484086;246;2633;-39
2022/03/17 00:21:27;;;;;;;;;;;21.70;32.00;;;;;;484153;246;2654;-39
2022/03/17 00:23:28;;;;;;;;;;;21.70;31.90;;;;;;484631;246;1063;-39
2022/03/17 00:25:30;;;;;;;;;;;21.70;32.00;;;;;;484525;246;1011;-40
2022/03/17 00:27:31;;;;;;;;;;;21.60;32.00;;;;;;484307;246;1064;-40
2022/03/17 00:29:32;;;;;;;;;;;21.70;32.00;;;;;;484494;246;1034;-39
2022/03/17 00:31:34;;;;;;;;;;;21.70;32.00;;;;;;484215;246;1270;-39
2022/03/17 00:33:35;;;;;;;;;;;21.70;32.00;;;;;;484470;246;1000;-39
2022/03/17 00:35:38;;;;;;;;;;;21.70;32.00;;;;;;484345;246;1111;-40
2022/03/17 00:37:38;;;;;;;;;;;21.70;32.00;;;;;;484567;246;2368;-40
2022/03/17 00:39:39;;;;;;;;;;;21.70;32.00;;;;;;484733;246;2113;-39
2022/03/17 00:41:41;;;;;;;;;;;21.70;32.00;;;;;;484240;246;1279;-40
2022/03/17 00:43:42;;;;;;;;;;;21.60;32.00;;;;;;484706;246;1157;-39
2022/03/17 00:45:43;;;;;;;;;;;21.70;32.00;;;;;;484540;246;1056;-39
2022/03/17 00:47:45;;;;;;;;;;;21.70;32.00;;;;;;484300;246;1130;-40
2022/03/17 00:49:46;;;;;;;;;;;21.70;32.00;;;;;;484287;246;1036;-40
2022/03/17 00:51:47;;;;;;;;;;;21.70;32.00;;;;;;484711;245;1386;-39
2022/03/17 00:53:49;;;;;;;;;;;21.70;32.00;;;;;;484649;246;1055;-40
2022/03/17 00:55:50;;;;;;;;;;;21.60;31.90;;;;;;484228;246;1253;-40
2022/03/17 00:57:51;;;;;;;;;;;21.60;32.00;;;;;;484403;246;2121;-40
2022/03/17 00:59:53;;;;;;;;;;;21.70;32.00;;;;;;484273;246;1054;-40
2022/03/17 01:01:54;;;;;;;;;;;21.70;31.90;;;;;;484497;246;1299;-39
2022/03/17 01:03:56;;;;;;;;;;;21.70;32.00;;;;;;484114;246;1242;-40
2022/03/17 01:05:59;;;;;;;;;;;21.60;31.90;;;;;;484667;246;1083;-40
2022/03/17 01:07:58;;;;;;;;;;;21.70;32.00;;;;;;484230;246;2262;-40
2022/03/17 01:10:00;;;;;;;;;;;21.70;31.90;;;;;;484268;246;1072;-39
2022/03/17 01:12:01;;;;;;;;;;;21.70;31.90;;;;;;484735;246;1067;-39
2022/03/17 01:14:02;;;;;;;;;;;21.70;31.90;;;;;;484289;246;1052;-40
2022/03/17 01:16:03;;;;;;;;;;;21.70;31.90;;;;;;484271;246;1038;-40
2022/03/17 01:18:05;;;;;;;;;;;21.60;31.90;;;;;;484274;246;2188;-40
2022/03/17 01:20:06;;;;;;;;;;;21.70;31.90;;;;;;484394;246;1363;-40
2022/03/17 01:22:08;;;;;;;;;;;21.60;31.90;;;;;;484595;246;1178;-39
2022/03/17 01:24:09;;;;;;;;;;;21.70;31.90;;;;;;484711;246;978;-39
2022/03/17 01:26:11;;;;;;;;;;;21.70;32.00;;;;;;484255;246;967;-39
2022/03/17 01:28:12;;;;;;;;;;;21.70;31.90;;;;;;484604;246;1240;-40
2022/03/17 01:30:13;;;;;;;;;;;21.70;31.90;;;;;;484710;246;1077;-40
2022/03/17 01:32:14;;;;;;;;;;;21.70;31.90;;;;;;484294;246;1390;-40
2022/03/17 01:34:17;;;;;;;;;;;21.70;31.90;;;;;;484723;246;1039;-40
2022/03/17 01:36:17;;;;;;;;;;;21.60;31.90;;;;;;484181;246;2191;-40
2022/03/17 01:38:19;;;;;;;;;;;21.70;31.90;;;;;;484632;246;2132;-39
2022/03/17 01:40:20;;;;;;;;;;;21.70;31.80;;;;;;484622;246;1090;-40
2022/03/17 01:42:21;;;;;;;;;;;21.70;31.80;;;;;;484702;246;1052;-40
2022/03/17 01:44:23;;;;;;;;;;;21.60;31.90;;;;;;484551;246;1100;-40
2022/03/17 01:46:24;;;;;;;;;;;21.70;31.90;;;;;;484722;246;1024;-39
2022/03/17 01:48:25;;;;;;;;;;;21.70;31.90;;;;;;484299;246;1231;-40
2022/03/17 01:50:27;;;;;;;;;;;21.70;31.90;;;;;;484192;246;1064;-39
2022/03/17 01:52:28;;;;;;;;;;;21.70;31.90;;;;;;484148;246;1329;-39
2022/03/17 01:54:29;;;;;;;;;;;21.60;31.90;;;;;;484422;246;1048;-40
2022/03/17 01:56:31;;;;;;;;;;;21.60;31.90;;;;;;484653;246;1080;-39
2022/03/17 01:58:32;;;;;;;;;;;21.60;31.90;;;;;;484528;246;2113;-40
2022/03/17 02:00:33;;;;;;;;;;;21.70;31.90;;;;;;484246;246;1064;-40
2022/03/17 02:02:34;;;;;;;;;;;21.70;31.80;;;;;;484504;246;1159;-40
2022/03/17 02:04:36;;;;;;;;;;;21.70;31.90;;;;;;484265;246;1073;-40
2022/03/17 02:06:38;;;;;;;;;;;21.60;31.90;;;;;;484679;246;1058;-40
2022/03/17 02:08:39;;;;;;;;;;;21.60;31.80;;;;;;484625;246;1091;-40
2022/03/17 02:13:10;;;;;;;;;;;21.60;31.90;;;;;;484162;246;1225;-40
2022/03/17 02:15:11;;;;;;;;;;;21.70;31.90;;;;;;484171;246;1081;-39
2022/03/17 02:17:13;;;;;;;;;;;21.70;31.90;;;;;;484575;246;1111;-40
2022/03/17 02:19:14;;;;;;;;;;;21.70;31.90;;;;;;484591;246;2116;-39
2022/03/17 02:21:15;;;;;;;;;;;21.60;31.90;;;;;;484539;246;1729;-40
2022/03/17 02:25:36;;;;;;;;;;;21.60;31.90;;;;;;484607;246;1166;-40
2022/03/17 02:27:38;;;;;;;;;;;21.60;31.90;;;;;;484155;246;1199;-40
2022/03/17 02:29:39;;;;;;;;;;;21.60;31.90;;;;;;484243;246;2256;-40
2022/03/17 02:31:40;;;;;;;;;;;21.60;31.90;;;;;;484209;246;1210;-39
2022/03/17 02:33:42;;;;;;;;;;;21.60;31.90;;;;;;484382;246;1180;-39
2022/03/17 02:35:42;;;;;;;;;;;21.60;31.80;;;;;;484545;246;2104;-40
2022/03/17 02:37:43;;;;;;;;;;;21.60;31.80;;;;;;484654;246;1128;-40
2022/03/17 02:39:45;;;;;;;;;;;21.60;31.80;;;;;;484336;246;2172;-40
2022/03/17 02:41:46;;;;;;;;;;;21.70;31.80;;;;;;484364;246;1195;-39
2022/03/17 02:43:47;;;;;;;;;;;21.70;31.80;;;;;;484657;246;1137;-40
2022/03/17 02:45:49;;;;;;;;;;;21.70;31.80;;;;;;484652;246;1084;-39
2022/03/17 02:47:51;;;;;;;;;;;21.60;31.80;;;;;;484322;246;1216;-39
2022/03/17 02:49:54;;;;;;;;;;;21.70;31.90;;;;;;484266;246;1105;-40
2022/03/17 02:51:54;;;;;;;;;;;21.60;31.90;;;;;;484561;246;1929;-39
2022/03/17 02:53:55;;;;;;;;;;;21.60;31.80;;;;;;484475;246;1063;-39
2022/03/17 02:55:56;;;;;;;;;;;21.70;31.90;;;;;;484277;246;1112;-39
2022/03/17 02:57:58;;;;;;;;;;;21.60;31.80;;;;;;484645;246;1134;-39
2022/03/17 02:59:59;;;;;;;;;;;21.60;31.90;;;;;;484316;246;2112;-40
2022/03/17 03:02:04;;;;;;;;;;;21.60;31.90;;;;;;484249;246;1023;-40
2022/03/17 03:04:02;;;;;;;;;;;21.60;31.90;;;;;;484059;246;2283;-40
2022/03/17 03:06:04;;;;;;;;;;;21.60;31.80;;;;;;484604;246;1338;-40
2022/03/17 03:08:05;;;;;;;;;;;21.60;31.80;;;;;;484690;246;1064;-40
2022/03/17 03:10:06;;;;;;;;;;;21.70;31.80;;;;;;484528;246;1254;-39
2022/03/17 03:12:08;;;;;;;;;;;21.60;31.80;;;;;;484273;246;1076;-40
2022/03/17 03:14:09;;;;;;;;;;;21.60;31.80;;;;;;484480;246;1156;-40
2022/03/17 03:16:11;;;;;;;;;;;21.70;31.80;;;;;;484225;245;1204;-40
2022/03/17 03:18:12;;;;;;;;;;;21.70;31.80;;;;;;484533;246;2279;-40
2022/03/17 03:20:13;;;;;;;;;;;21.70;31.90;;;;;;484259;246;2192;-40
2022/03/17 03:22:14;;;;;;;;;;;21.60;31.80;;;;;;484274;246;1427;-40
2022/03/17 03:24:16;;;;;;;;;;;21.70;31.80;;;;;;484737;246;1102;-39
2022/03/17 03:26:17;;;;;;;;;;;21.60;31.80;;;;;;484228;246;1350;-39
2022/03/17 03:28:18;;;;;;;;;;;21.70;31.80;;;;;;484724;246;1059;-40
2022/03/17 03:30:20;;;;;;;;;;;21.70;31.80;;;;;;484490;246;1051;-39
2022/03/17 03:32:22;;;;;;;;;;;21.60;31.80;;;;;;484282;246;2277;-40
2022/03/17 03:34:22;;;;;;;;;;;21.60;31.80;;;;;;484174;246;2241;-39
2022/03/17 03:38:43;;;;;;;;;;;21.60;31.80;;;;;;484247;246;1044;-39
2022/03/17 03:40:44;;;;;;;;;;;21.70;31.80;;;;;;484463;246;1029;-40
2022/03/17 03:42:46;;;;;;;;;;;21.70;31.80;;;;;;484239;246;1236;-40
2022/03/17 03:44:47;;;;;;;;;;;21.70;31.80;;;;;;484254;246;1151;-40
2022/03/17 03:46:48;;;;;;;;;;;21.70;31.80;;;;;;484236;246;1158;-39
2022/03/17 03:48:50;;;;;;;;;;;21.70;31.70;;;;;;484303;246;1209;-40
2022/03/17 03:50:51;;;;;;;;;;;21.60;31.70;;;;;;484590;246;1047;-40
2022/03/17 03:52:52;;;;;;;;;;;21.60;31.80;;;;;;484331;246;1073;-39
2022/03/17 03:54:53;;;;;;;;;;;21.70;31.80;;;;;;484301;246;1070;-40
2022/03/17 03:56:55;;;;;;;;;;;21.70;31.80;;;;;;484646;246;1128;-40
2022/03/17 03:58:57;;;;;;;;;;;21.70;31.70;;;;;;484255;246;2132;-40
2022/03/17 04:00:58;;;;;;;;;;;21.70;31.70;;;;;;484202;246;1105;-40
2022/03/17 04:03:00;;;;;;;;;;;21.70;31.70;;;;;;484233;246;1245;-39
2022/03/17 04:05:01;;;;;;;;;;;21.70;31.70;;;;;;484252;246;1245;-40
2022/03/17 04:07:02;;;;;;;;;;;21.60;31.70;;;;;;484227;246;1318;-39
2022/03/17 04:09:03;;;;;;;;;;;21.70;31.70;;;;;;484633;246;1087;-39
2022/03/17 04:11:05;;;;;;;;;;;21.70;31.70;;;;;;484714;246;1122;-40
2022/03/17 04:13:06;;;;;;;;;;;21.70;31.70;;;;;;484724;246;1310;-39
2022/03/17 04:15:07;;;;;;;;;;;21.70;31.70;;;;;;484420;246;1052;-40
2022/03/17 04:17:09;;;;;;;;;;;21.70;31.70;;;;;;484203;246;1113;-40
2022/03/17 04:19:10;;;;;;;;;;;21.70;31.70;;;;;;484543;246;2188;-39
2022/03/17 04:21:11;;;;;;;;;;;21.70;31.70;;;;;;484575;246;1073;-40
2022/03/17 04:23:13;;;;;;;;;;;21.70;31.60;;;;;;484716;246;1062;-39
2022/03/17 04:25:14;;;;;;;;;;;21.70;31.70;;;;;;484449;246;1081;-40
2022/03/17 04:27:15;;;;;;;;;;;21.70;31.70;;;;;;484296;246;2099;-39
2022/03/17 04:29:17;;;;;;;;;;;21.70;31.70;;;;;;484623;246;1029;-40
2022/03/17 04:31:18;;;;;;;;;;;21.70;31.70;;;;;;484666;246;1077;-39
2022/03/17 04:33:19;;;;;;;;;;;21.70;31.70;;;;;;484265;246;1034;-40
2022/03/17 04:35:20;;;;;;;;;;;21.70;31.70;;;;;;484245;246;1322;-40
2022/03/17 04:37:22;;;;;;;;;;;21.70;31.70;;;;;;484610;246;1079;-40
2022/03/17 04:39:23;;;;;;;;;;;21.70;31.70;;;;;;484398;246;2192;-40
2022/03/17 04:41:24;;;;;;;;;;;21.70;31.70;;;;;;484186;246;1297;-40
2022/03/17 04:43:26;;;;;;;;;;;21.70;31.70;;;;;;484267;246;1122;-40
2022/03/17 04:45:27;;;;;;;;;;;21.70;31.60;;;;;;484520;246;1099;-40
2022/03/17 04:47:28;;;;;;;;;;;21.70;31.70;;;;;;484283;246;1065;-39
2022/03/17 04:49:30;;;;;;;;;;;21.70;31.70;;;;;;484507;246;1120;-39
2022/03/17 04:51:31;;;;;;;;;;;21.70;31.70;;;;;;484648;246;1058;-39
2022/03/17 04:53:33;;;;;;;;;;;21.70;31.80;;;;;;484273;246;1074;-40
2022/03/17 04:55:34;;;;;;;;;;;21.70;31.70;;;;;;484208;246;1092;-40
2022/03/17 04:57:35;;;;;;;;;;;21.70;31.60;;;;;;484171;246;1075;-39
2022/03/17 04:59:37;;;;;;;;;;;21.70;31.70;;;;;;484667;246;2187;-40
2022/03/17 05:01:38;;;;;;;;;;;21.70;31.70;;;;;;484518;246;1187;-39
2022/03/17 05:03:39;;;;;;;;;;;21.70;31.70;;;;;;484562;246;1068;-39
2022/03/17 05:05:41;;;;;;;;;;;21.70;31.80;;;;;;484282;246;1226;-40
2022/03/17 05:07:42;;;;;;;;;;;21.60;31.70;;;;;;484386;246;1046;-40
2022/03/17 05:09:44;;;;;;;;;;;21.70;31.80;;;;;;484693;246;1021;-39
2022/03/17 05:11:45;;;;;;;;;;;21.60;31.70;;;;;;484151;246;1015;-39
2022/03/17 05:13:48;;;;;;;;;;;21.60;31.80;;;;;;484557;246;1136;-39
2022/03/17 05:15:48;;;;;;;;;;;21.70;31.80;;;;;;484196;246;2234;-40
2022/03/17 05:17:50;;;;;;;;;;;21.70;31.70;;;;;;484677;246;1071;-40
2022/03/17 05:19:51;;;;;;;;;;;21.60;31.70;;;;;;484452;246;2149;-40
2022/03/17 05:21:52;;;;;;;;;;;21.70;31.80;;;;;;484279;246;1386;-40
2022/03/17 05:23:54;;;;;;;;;;;21.60;31.80;;;;;;484151;246;1081;-39
2022/03/17 05:25:55;;;;;;;;;;;21.60;31.70;;;;;;484142;246;1134;-39
2022/03/17 05:27:56;;;;;;;;;;;21.70;31.80;;;;;;484165;246;1308;-39
2022/03/17 05:29:57;;;;;;;;;;;21.70;31.80;;;;;;484186;246;1071;-39
2022/03/17 05:31:59;;;;;;;;;;;21.70;31.70;;;;;;484249;246;1322;-40
2022/03/17 05:34:00;;;;;;;;;;;21.70;31.70;;;;;;484090;246;1122;-40
2022/03/17 05:36:02;;;;;;;;;;;21.70;31.80;;;;;;484039;246;1528;-39
2022/03/17 05:38:03;;;;;;;;;;;21.70;31.80;;;;;;484142;246;2131;-39
2022/03/17 05:40:05;;;;;;;;;;;21.70;31.80;;;;;;484072;246;2129;-40
2022/03/17 05:42:07;;;;;;;;;;;21.70;31.80;;;;;;484372;246;1346;-39
2022/03/17 05:44:08;;;;;;;;;;;21.60;31.70;;;;;;484409;246;1079;-39
2022/03/17 05:46:09;;;;;;;;;;;21.70;31.70;;;;;;484043;246;1153;-40
2022/03/17 05:48:11;;;;;;;;;;;21.70;31.70;;;;;;484050;246;1239;-40
2022/03/17 05:50:12;;;;;;;;;;;21.70;31.70;;;;;;484077;246;1130;-39
2022/03/17 05:52:13;;;;;;;;;;;21.70;31.70;;;;;;484089;246;1292;-39
2022/03/17 05:54:15;;;;;;;;;;;21.70;31.70;;;;;;484136;246;1038;-39
2022/03/17 05:56:16;;;;;;;;;;;21.70;31.70;;;;;;484199;246;1495;-39
2022/03/17 05:58:17;;;;;;;;;;;21.70;31.70;;;;;;484165;246;1214;-40
2022/03/17 06:00:19;;;;;;;;;;;21.70;31.70;;;;;;484117;246;2191;-39
2022/03/17 06:02:20;;;;;;;;;;;21.70;31.70;;;;;;484256;246;1234;-40
2022/03/17 06:04:22;;;;;;;;;;;21.70;31.70;;;;;;484181;246;1071;-39
2022/03/17 06:06:23;;;;;;;;;;;21.70;31.70;;;;;;483982;246;1733;-40
2022/03/17 06:08:24;;;;;;;;;;;21.70;31.70;;;;;;484179;246;1079;-39
2022/03/17 06:10:26;;;;;;;;;;;21.70;31.80;;;;;;484094;246;1105;-40
2022/03/17 06:12:26;;;;;;;;;;;21.70;31.70;;;;;;483953;246;1903;-40
2022/03/17 06:14:28;;;;;;;;;;;21.70;31.70;;;;;;484065;246;1112;-40
2022/03/17 06:16:29;;;;;;;;;;;21.60;31.70;;;;;;484027;246;1243;-40
2022/03/17 06:18:30;;;;;;;;;;;21.70;31.80;;;;;;484158;246;1051;-40
2022/03/17 06:20:32;;;;;;;;;;;21.60;31.70;;;;;;484273;246;2196;-40
2022/03/17 06:22:33;;;;;;;;;;;21.70;31.70;;;;;;483963;246;1069;-40
2022/03/17 06:24:34;;;;;;;;;;;21.70;31.70;;;;;;484202;246;1075;-39
2022/03/17 06:26:36;;;;;;;;;;;21.70;31.70;;;;;;483881;246;1055;-39
2022/03/17 06:28:37;;;;;;;;;;;21.70;31.70;;;;;;484131;246;1051;-40
2022/03/17 06:30:38;;;;;;;;;;;21.60;31.70;;;;;;484214;246;1123;-40
2022/03/17 06:32:40;;;;;;;;;;;21.60;31.70;;;;;;483853;246;1083;-40
2022/03/17 06:34:41;;;;;;;;;;;21.70;31.70;;;;;;483962;246;1116;-40
2022/03/17 06:36:42;;;;;;;;;;;21.70;31.70;;;;;;484035;246;1177;-40
2022/03/17 06:38:44;;;;;;;;;;;21.60;31.70;;;;;;484326;246;1099;-40
2022/03/17 06:40:45;;;;;;;;;;;21.60;31.70;;;;;;484095;246;2141;-39
2022/03/17 06:42:46;;;;;;;;;;;21.70;31.70;;;;;;484093;246;1188;-40
2022/03/17 06:44:48;;;;;;;;;;;21.60;31.70;;;;;;483817;246;1179;-40
2022/03/17 06:46:49;;;;;;;;;;;21.70;31.70;;;;;;483823;246;1412;-39
2022/03/17 06:48:51;;;;;;;;;;;21.70;31.70;;;;;;483819;246;1081;-40
2022/03/17 06:50:52;;;;;;;;;;;21.70;31.70;;;;;;483902;246;1236;-40
2022/03/17 06:52:54;;;;;;;;;;;21.70;31.80;;;;;;483862;246;1122;-40
2022/03/17 06:54:55;;;;;;;;;;;21.70;31.80;;;;;;483768;246;2159;-39
2022/03/17 06:56:56;;;;;;;;;;;21.70;31.70;;;;;;483956;246;1053;-40
2022/03/17 06:58:57;;;;;;;;;;;21.70;31.70;;;;;;483985;246;1047;-40
2022/03/17 07:00:58;;;;;;;;;;;21.70;31.70;;;;;;483800;246;2204;-40
2022/03/17 07:03:00;;;;;;;;;;;21.60;31.70;;;;;;483952;246;1229;-39
2022/03/17 07:05:01;;;;;;;;;;;21.60;31.80;;;;;;483815;246;1080;-40
2022/03/17 07:07:02;;;;;;;;;;;21.70;31.70;;;;;;483864;246;1188;-40
2022/03/17 07:09:04;;;;;;;;;;;21.70;31.70;;;;;;484069;246;1038;-40
2022/03/17 07:11:05;;;;;;;;;;;21.70;31.80;;;;;;483804;246;1149;-40
2022/03/17 07:13:07;;;;;;;;;;;21.60;31.70;;;;;;483831;246;1095;-40
2022/03/17 07:15:08;;;;;;;;;;;21.60;31.70;;;;;;483623;241;1185;-40
2022/03/17 07:17:09;;;;;;;;;;;21.70;31.70;;;;;;483617;246;1163;-40
2022/03/17 07:19:11;;;;;;;;;;;21.70;31.70;;;;;;483631;246;1142;-40
2022/03/17 07:21:12;;;;;;;;;;;21.70;31.70;;;;;;483519;246;2116;-40
2022/03/17 07:23:13;;;;;;;;;;;21.60;31.70;;;;;;483531;246;2182;-39
2022/03/17 07:25:15;;;;;;;;;;;21.70;31.70;;;;;;483570;246;1093;-40
2022/03/17 07:27:16;;;;;;;;;;;21.70;31.60;;;;;;483824;246;1094;-39
2022/03/17 07:29:17;;;;;;;;;;;21.70;31.70;;;;;;483779;246;1424;-40
2022/03/17 07:31:18;;;;;;;;;;;21.60;31.60;;;;;;483556;246;1197;-40
2022/03/17 07:33:21;;;;;;;;;;;21.70;31.70;;;;;;483718;246;1101;-39
2022/03/17 07:35:23;;;;;;;;;;;21.60;31.60;;;;;;483670;246;1086;-40
2022/03/17 07:37:26;;;;;;;;;;;21.60;31.70;;;;;;483606;246;1219;-40
2022/03/17 07:39:27;;;;;;;;;;;21.70;31.60;;;;;;483558;246;1082;-39
2022/03/17 07:41:29;;;;;;;;;;;21.70;31.50;;;;;;483474;246;2183;-39
2022/03/17 07:43:30;;;;;;;;;;;21.70;31.50;;;;;;483448;246;1132;-40
2022/03/17 07:45:31;;;;;;;;;;;21.60;31.50;;;;;;483386;246;1291;-40
2022/03/17 07:47:33;;;;;;;;;;;21.70;31.50;;;;;;483519;246;1324;-40
2022/03/17 07:49:34;;;;;;;;;;;21.70;31.50;;;;;;483619;246;1232;-40
2022/03/17 07:51:36;;;;;;;;;;;21.70;31.50;;;;;;483469;246;1447;-40
2022/03/17 07:53:37;;;;;;;;;;;21.70;31.50;;;;;;483524;246;2396;-40
2022/03/17 07:55:38;;;;;;;;;;;21.70;31.50;;;;;;483434;246;1406;-40
2022/03/17 07:57:39;;;;;;;;;;;21.70;31.50;;;;;;483494;246;1225;-40
2022/03/17 07:59:41;;;;;;;;;;;21.60;31.50;;;;;;483529;246;1123;-39
2022/03/17 08:01:42;;;;;;;;;;;21.70;31.50;;;;;;483449;246;2176;-40
2022/03/17 08:03:43;;;;;;;;;;;21.70;31.40;;;;;;483502;246;1080;-40
2022/03/17 08:05:44;;;;;;;;;;;21.70;31.40;;;;;;483457;246;1332;-40
2022/03/17 08:07:46;;;;;;;;;;;21.70;31.30;;;;;;483304;246;1271;-40
2022/03/17 08:09:47;;;;;;;;;;;21.70;31.40;;;;;;483349;246;1140;-40
2022/03/17 08:11:49;;;;;;;;;;;21.70;31.40;;;;;;483305;246;1335;-40
2022/03/17 08:13:50;;;;;;;;;;;21.70;31.40;;;;;;483502;246;1210;-40
2022/03/17 08:15:52;;;;;;;;;;;21.70;31.40;;;;;;483450;246;1209;-39
2022/03/17 08:17:53;;;;;;;;;;;21.70;31.40;;;;;;483428;246;2404;-39
2022/03/17 08:19:55;;;;;;;;;;;21.70;31.40;;;;;;483403;246;1054;-40
2022/03/17 08:21:56;;;;;;;;;;;21.60;31.40;;;;;;482908;246;2184;-40
2022/03/17 08:23:57;;;;;;;;;;;21.60;31.40;;;;;;483181;246;1563;-40
2022/03/17 08:25:58;;;;;;;;;;;21.70;31.40;;;;;;483361;246;1387;-39
2022/03/17 08:28:02;;;;;;;;;;;21.70;31.40;;;;;;483146;246;1225;-40
2022/03/17 08:30:01;;;;;;;;;;;21.70;31.40;;;;;;483042;246;2145;-40
2022/03/17 08:32:04;;;;;;;;;;;21.70;31.40;;;;;;483208;246;1196;-40
2022/03/17 08:34:04;;;;;;;;;;;21.70;31.40;;;;;;483227;246;2227;-40
2022/03/17 08:36:06;;;;;;;;;;;21.70;31.30;;;;;;483285;246;1124;-40
2022/03/17 08:38:07;;;;;;;;;;;21.70;31.30;;;;;;483322;246;1285;-40
2022/03/17 08:40:08;;;;;;;;;;;21.70;31.30;;;;;;483439;246;1167;-40
2022/03/17 08:42:10;;;;;;;;;;;21.70;31.30;;;;;;483284;246;2192;-40
2022/03/17 08:44:11;;;;;;;;;;;21.70;31.30;;;;;;483305;246;1081;-39
2022/03/17 08:50:51;;;;;;;;;;;21.70;31.30;;;;;;483416;246;1093;-40
2022/03/17 08:52:52;;;;;;;;;;;21.70;31.30;;;;;;483501;246;1202;-40
2022/03/17 08:54:54;;;;;;;;;;;21.70;31.30;;;;;;483378;246;1377;-40
2022/03/17 08:56:59;;;;;;;;;;;21.70;31.20;;;;;;483302;246;1156;-39
2022/03/17 08:58:58;;;;;;;;;;;21.70;31.30;;;;;;483215;246;2026;-40
2022/03/17 09:01:00;;;;;;;;;;;21.70;31.30;;;;;;483644;246;2244;-40
2022/03/17 09:03:02;;;;;;;;;;;21.70;31.30;;;;;;483501;246;2210;-40
2022/03/17 09:05:02;;;;;;;;;;;21.60;31.30;;;;;;483544;246;2312;-39
2022/03/17 09:07:03;;;;;;;;;;;21.70;31.40;;;;;;483519;246;1251;-40
2022/03/17 09:09:05;;;;;;;;;;;21.70;31.30;;;;;;483333;246;1034;-40
2022/03/17 09:11:06;;;;;;;;;;;21.70;31.30;;;;;;483322;246;1236;-40
2022/03/17 09:13:08;;;;;;;;;;;21.70;31.30;;;;;;483774;246;1115;-39
2022/03/17 09:15:11;;;;;;;;;;;21.60;31.20;;;;;;483331;246;1255;-40
2022/03/17 09:17:10;;;;;;;;;;;21.70;31.30;;;;;;483257;246;2284;-39
2022/03/17 09:19:12;;;;;;;;;;;21.70;31.30;;;;;;483968;246;1352;-40
2022/03/17 09:21:13;;;;;;;;;;;21.70;31.20;;;;;;483553;246;2188;-40
2022/03/17 09:23:15;;;;;;;;;;;21.70;31.20;;;;;;483024;246;1190;-40
2022/03/17 09:25:18;;;;;;;;;;;21.70;31.20;;;;;;483196;246;1159;-40
2022/03/17 09:27:17;;;;;;;;;;;21.70;31.20;;;;;;483493;246;2401;-40
2022/03/17 09:29:18;;;;;;;;;;;21.70;31.20;;;;;;483744;246;955;-39
2022/03/17 09:31:20;;;;;;;;;;;21.70;31.20;;;;;;483547;246;1392;-40
2022/03/17 09:33:22;;;;;;;;;;;21.70;31.20;;;;;;483900;246;861;-40
2022/03/17 09:35:23;;;;;;;;;;;21.70;31.20;;;;;;483586;246;2077;-40
2022/03/17 09:37:24;;;;;;;;;;;21.70;31.20;;;;;;483325;246;1326;-39
2022/03/17 09:39:45;;;;;;;;;;;21.70;31.20;;;;;;483238;246;1206;-40
2022/03/17 09:41:42;;;;;;;;;;;21.70;31.20;;;;;;483110;246;2839;-40
2022/03/17 09:43:43;;;;;;;;;;;21.70;31.20;;;;;;484017;246;1048;-40
2022/03/17 09:45:45;;;;;;;;;;;21.70;31.10;;;;;;483413;246;1159;-40
2022/03/17 09:47:46;;;;;;;;;;;21.70;31.20;;;;;;483460;246;1472;-40
2022/03/17 09:49:47;;;;;;;;;;;21.70;31.20;;;;;;483309;246;1072;-40
2022/03/17 09:51:48;;;;;;;;;;;21.60;31.20;;;;;;483343;241;1331;-40
2022/03/17 09:53:53;;;;;;;;;;;21.60;31.20;;;;;;483305;246;1160;-40
2022/03/17 09:55:52;;;;;;;;;;;21.70;31.30;;;;;;482922;246;2083;-40
2022/03/17 09:57:53;;;;;;;;;;;21.70;31.20;;;;;;483098;246;1203;-40
2022/03/17 09:59:56;;;;;;;;;;;21.70;31.20;;;;;;483280;246;1103;-40
2022/03/17 10:01:57;;;;;;;;;;;21.70;31.20;;;;;;483229;246;2195;-40
2022/03/17 10:03:57;;;;;;;;;;;21.70;31.20;;;;;;483305;246;2144;-40
2022/03/17 10:05:58;;;;;;;;;;;21.70;31.10;;;;;;483243;246;1258;-39
2022/03/17 10:07:59;;;;;;;;;;;21.70;31.10;;;;;;483093;246;1270;-39
2022/03/17 10:10:01;;;;;;;;;;;21.70;31.10;;;;;;482872;246;1306;-40
2022/03/17 10:12:02;;;;;;;;;;;21.60;31.20;;;;;;483079;246;1292;-40
2022/03/17 10:14:05;;;;;;;;;;;21.60;31.10;;;;;;483414;246;1212;-40
2022/03/17 10:16:05;;;;;;;;;;;21.70;31.10;;;;;;483092;246;2056;-40
2022/03/17 10:18:06;;;;;;;;;;;21.70;31.10;;;;;;483259;246;1105;-40
2022/03/17 10:20:08;;;;;;;;;;;21.70;31.20;;;;;;483055;246;1340;-39
2022/03/17 10:22:09;;;;;;;;;;;21.70;31.10;;;;;;483156;246;2192;-40
2022/03/17 10:24:10;;;;;;;;;;;21.70;31.10;;;;;;483028;246;1250;-39
2022/03/17 10:26:12;;;;;;;;;;;21.70;31.10;;;;;;483148;246;1082;-39
2022/03/17 10:28:14;;;;;;;;;;;21.70;31.10;;;;;;483193;246;1123;-39
2022/03/17 10:30:15;;;;;;;;;;;21.70;31.10;;;;;;483154;246;1141;-40
2022/03/17 10:32:17;;;;;;;;;;;21.70;31.00;;;;;;482928;246;1142;-40
2022/03/17 10:34:18;;;;;;;;;;;21.70;31.10;;;;;;483037;246;1071;-40
2022/03/17 10:36:21;;;;;;;;;;;21.70;31.10;;;;;;483332;246;1326;-40
2022/03/17 10:38:22;;;;;;;;;;;21.70;31.00;;;;;;483564;246;2228;-40
2022/03/17 10:40:22;;;;;;;;;;;21.70;31.10;;;;;;483728;246;2236;-40
2022/03/17 10:42:23;;;;;;;;;;;21.70;31.10;;;;;;483918;246;2184;-40
2022/03/17 10:44:25;;;;;;;;;;;21.70;31.00;;;;;;483984;246;845;-40
2022/03/17 10:46:26;;;;;;;;;;;21.80;31.00;;;;;;483924;246;1073;-40
2022/03/17 10:48:27;;;;;;;;;;;21.70;31.00;;;;;;484105;246;866;-40
2022/03/17 10:50:29;;;;;;;;;;;21.70;31.00;;;;;;483415;246;1123;-40
2022/03/17 10:52:30;;;;;;;;;;;21.70;31.10;;;;;;483321;246;1220;-40
2022/03/17 10:54:32;;;;;;;;;;;21.70;31.10;;;;;;483328;246;1178;-39
2022/03/17 10:56:33;;;;;;;;;;;21.70;31.00;;;;;;483258;246;776;-39
2022/03/17 10:58:35;;;;;;;;;;;21.70;31.00;;;;;;483868;246;756;-39
2022/03/17 11:00:36;;;;;;;;;;;21.70;31.00;;;;;;483715;246;2065;-40
2022/03/17 11:02:37;;;;;;;;;;;21.70;31.00;;;;;;483087;246;2184;-39
2022/03/17 11:04:38;;;;;;;;;;;21.80;31.00;;;;;;483241;246;755;-40
2022/03/17 11:06:40;;;;;;;;;;;21.70;31.00;;;;;;483575;246;1001;-40
2022/03/17 11:08:45;;;;;;;;;;;21.70;31.00;;;;;;483561;246;1235;-40
2022/03/17 11:10:42;;;;;;;;;;;21.80;31.00;;;;;;482897;246;2073;-40
2022/03/17 11:12:43;;;;;;;;;;;21.70;30.90;;;;;;483362;246;1373;-40
2022/03/17 11:14:45;;;;;;;;;;;21.80;31.00;;;;;;483473;246;1122;-39
2022/03/17 11:16:50;;;;;;;;;;;21.70;31.00;;;;;;483848;246;1267;-40
2022/03/17 11:18:48;;;;;;;;;;;21.80;31.00;;;;;;483324;246;2083;-39
2022/03/17 11:20:49;;;;;;;;;;;21.80;31.00;;;;;;483355;241;1145;-39
2022/03/17 11:22:51;;;;;;;;;;;21.70;31.00;;;;;;483043;246;2144;-39
2022/03/17 11:24:54;;;;;;;;;;;21.80;31.00;;;;;;483177;246;1210;-39
2022/03/17 11:26:54;;;;;;;;;;;21.80;31.00;;;;;;483419;246;2186;-39
2022/03/17 11:28:55;;;;;;;;;;;21.70;30.90;;;;;;483517;246;1069;-39
2022/03/17 11:30:56;;;;;;;;;;;21.80;31.00;;;;;;483503;246;1330;-40
2022/03/17 11:32:58;;;;;;;;;;;21.70;31.00;;;;;;483309;246;1069;-40
2022/03/17 11:34:59;;;;;;;;;;;21.70;31.00;;;;;;483332;246;1054;-40
2022/03/17 11:37:01;;;;;;;;;;;21.70;31.00;;;;;;483556;246;1247;-40
2022/03/17 11:39:02;;;;;;;;;;;21.70;31.00;;;;;;483444;246;2155;-39
2022/03/17 11:41:03;;;;;;;;;;;21.70;31.00;;;;;;483357;246;1077;-40
2022/03/17 11:43:05;;;;;;;;;;;21.70;31.00;;;;;;483415;246;2188;-40
2022/03/17 11:45:06;;;;;;;;;;;21.60;31.00;;;;;;483248;246;2236;-40
2022/03/17 11:47:08;;;;;;;;;;;21.70;31.00;;;;;;483215;246;1110;-40
2022/03/17 11:49:09;;;;;;;;;;;21.70;31.00;;;;;;483311;246;1111;-39
2022/03/17 11:51:10;;;;;;;;;;;21.70;31.00;;;;;;483307;246;1095;-40
2022/03/17 11:53:12;;;;;;;;;;;21.70;31.00;;;;;;483422;246;1200;-40
2022/03/17 11:55:13;;;;;;;;;;;21.70;31.00;;;;;;483328;246;1212;-40
2022/03/17 11:57:14;;;;;;;;;;;21.70;31.00;;;;;;483246;246;1114;-40
2022/03/17 11:59:16;;;;;;;;;;;21.70;31.10;;;;;;483406;246;1227;-39
2022/03/17 12:01:17;;;;;;;;;;;21.70;31.10;;;;;;483347;246;1222;-39
2022/03/17 12:03:18;;;;;;;;;;;21.70;31.10;;;;;;483240;246;2132;-39
2022/03/17 12:05:19;;;;;;;;;;;21.70;31.00;;;;;;483343;246;1232;-40
2022/03/17 12:07:21;;;;;;;;;;;21.70;31.00;;;;;;483298;246;1229;-39
2022/03/17 12:09:22;;;;;;;;;;;21.70;31.00;;;;;;483291;246;1227;-40